sensor_id;sensor_type;location;lat;lon;timestamp;P1;durP1;ratioP1;P2;durP2;ratioP2
52650;SDS011;38537;47.226;39.702;2023-02-11T00:03:55;29.60;;;13.73;;
52650;SDS011;38537;47.226;39.702;2023-02-11T00:06:25;25.75;;;14.05;;
52650;SDS011;38537;47.226;39.702;2023-02-11T00:08:54;25.95;;;14.38;;
52650;SDS011;38537;47.226;39.702;2023-02-11T00:11:22;26.27;;;14.52;;
52650;SDS011;38537;47.226;39.702;2023-02-11T00:13:57;30.60;;;14.95;;
52650;SDS011;38537;47.226;39.702;2023-02-11T00:16:26;32.28;;;15.38;;
52650;SDS011;38537;47.226;39.702;2023-02-11T00:18:55;30.65;;;15.68;;
52650;SDS011;38537;47.226;39.702;2023-02-11T00:21:23;30.27;;;16.25;;
52650;SDS011;38537;47.226;39.702;2023-02-11T00:23:51;32.63;;;16.77;;
52650;SDS011;38537;47.226;39.702;2023-02-11T00:26:21;33.50;;;16.75;;
52650;SDS011;38537;47.226;39.702;2023-02-11T00:28:53;33.08;;;17.35;;
52650;SDS011;38537;47.226;39.702;2023-02-11T00:31:20;35.25;;;16.95;;
52650;SDS011;38537;47.226;39.702;2023-02-11T00:33:49;39.35;;;18.65;;
52650;SDS011;38537;47.226;39.702;2023-02-11T00:36:17;34.85;;;18.17;;
52650;SDS011;38537;47.226;39.702;2023-02-11T00:38:47;35.80;;;17.83;;
52650;SDS011;38537;47.226;39.702;2023-02-11T00:41:15;33.65;;;18.52;;
52650;SDS011;38537;47.226;39.702;2023-02-11T00:43:43;37.15;;;18.42;;
52650;SDS011;38537;47.226;39.702;2023-02-11T00:46:11;31.85;;;18.02;;
52650;SDS011;38537;47.226;39.702;2023-02-11T00:48:38;31.27;;;17.95;;
52650;SDS011;38537;47.226;39.702;2023-02-11T00:51:06;33.58;;;17.92;;
52650;SDS011;38537;47.226;39.702;2023-02-11T00:53:34;33.42;;;16.92;;
52650;SDS011;38537;47.226;39.702;2023-02-11T00:56:01;34.72;;;16.75;;
52650;SDS011;38537;47.226;39.702;2023-02-11T00:58:29;30.13;;;16.05;;
52650;SDS011;38537;47.226;39.702;2023-02-11T01:00:57;36.90;;;15.93;;
52650;SDS011;38537;47.226;39.702;2023-02-11T01:03:24;36.28;;;16.77;;
52650;SDS011;38537;47.226;39.702;2023-02-11T01:05:52;35.13;;;16.50;;
52650;SDS011;38537;47.226;39.702;2023-02-11T01:08:19;30.15;;;16.38;;
52650;SDS011;38537;47.226;39.702;2023-02-11T01:10:53;30.13;;;15.57;;
52650;SDS011;38537;47.226;39.702;2023-02-11T01:13:26;29.48;;;15.88;;
52650;SDS011;38537;47.226;39.702;2023-02-11T01:15:54;31.38;;;14.82;;
52650;SDS011;38537;47.226;39.702;2023-02-11T01:18:22;27.60;;;14.32;;
52650;SDS011;38537;47.226;39.702;2023-02-11T01:20:51;28.45;;;14.15;;
52650;SDS011;38537;47.226;39.702;2023-02-11T01:23:20;20.98;;;13.25;;
52650;SDS011;38537;47.226;39.702;2023-02-11T01:25:47;19.38;;;12.98;;
52650;SDS011;38537;47.226;39.702;2023-02-11T01:28:16;23.77;;;12.93;;
52650;SDS011;38537;47.226;39.702;2023-02-11T01:30:45;20.83;;;13.68;;
52650;SDS011;38537;47.226;39.702;2023-02-11T01:33:12;24.67;;;14.07;;
52650;SDS011;38537;47.226;39.702;2023-02-11T01:35:39;23.40;;;14.13;;
52650;SDS011;38537;47.226;39.702;2023-02-11T01:38:07;22.80;;;14.10;;
52650;SDS011;38537;47.226;39.702;2023-02-11T01:40:39;21.00;;;13.65;;
52650;SDS011;38537;47.226;39.702;2023-02-11T01:43:11;24.33;;;14.25;;
52650;SDS011;38537;47.226;39.702;2023-02-11T01:51:12;25.42;;;15.35;;
52650;SDS011;38537;47.226;39.702;2023-02-11T01:53:44;24.08;;;15.40;;
52650;SDS011;38537;47.226;39.702;2023-02-11T01:56:32;24.83;;;14.75;;
52650;SDS011;38537;47.226;39.702;2023-02-11T01:59:22;24.13;;;14.88;;
52650;SDS011;38537;47.226;39.702;2023-02-11T02:01:56;22.92;;;14.40;;
52650;SDS011;38537;47.226;39.702;2023-02-11T02:04:30;24.35;;;15.15;;
52650;SDS011;38537;47.226;39.702;2023-02-11T02:07:02;22.75;;;15.27;;
52650;SDS011;38537;47.226;39.702;2023-02-11T02:09:36;27.10;;;15.55;;
52650;SDS011;38537;47.226;39.702;2023-02-11T02:12:11;22.70;;;14.68;;
52650;SDS011;38537;47.226;39.702;2023-02-11T02:14:38;25.38;;;15.50;;
52650;SDS011;38537;47.226;39.702;2023-02-11T02:20:10;28.70;;;15.82;;
52650;SDS011;38537;47.226;39.702;2023-02-11T02:26:02;29.75;;;16.50;;
52650;SDS011;38537;47.226;39.702;2023-02-11T02:31:22;35.72;;;21.00;;
52650;SDS011;38537;47.226;39.702;2023-02-11T02:34:07;32.00;;;19.02;;
52650;SDS011;38537;47.226;39.702;2023-02-11T02:36:46;37.55;;;20.98;;
52650;SDS011;38537;47.226;39.702;2023-02-11T02:39:32;30.85;;;20.48;;
52650;SDS011;38537;47.226;39.702;2023-02-11T02:42:02;32.78;;;19.92;;
52650;SDS011;38537;47.226;39.702;2023-02-11T02:44:31;29.70;;;18.83;;
52650;SDS011;38537;47.226;39.702;2023-02-11T02:46:59;29.77;;;18.05;;
52650;SDS011;38537;47.226;39.702;2023-02-11T02:49:26;32.40;;;18.13;;
52650;SDS011;38537;47.226;39.702;2023-02-11T03:06:32;30.33;;;18.42;;
52650;SDS011;38537;47.226;39.702;2023-02-11T03:09:05;30.35;;;16.92;;
52650;SDS011;38537;47.226;39.702;2023-02-11T03:11:37;26.40;;;17.67;;
52650;SDS011;38537;47.226;39.702;2023-02-11T03:14:07;27.25;;;17.52;;
52650;SDS011;38537;47.226;39.702;2023-02-11T03:16:37;31.38;;;18.77;;
52650;SDS011;38537;47.226;39.702;2023-02-11T03:19:12;27.83;;;17.77;;
52650;SDS011;38537;47.226;39.702;2023-02-11T03:21:44;28.90;;;17.75;;
52650;SDS011;38537;47.226;39.702;2023-02-11T03:24:17;29.42;;;18.60;;
52650;SDS011;38537;47.226;39.702;2023-02-11T03:26:51;30.73;;;18.15;;
52650;SDS011;38537;47.226;39.702;2023-02-11T03:32:05;29.60;;;17.92;;
52650;SDS011;38537;47.226;39.702;2023-02-11T03:34:43;31.67;;;18.42;;
52650;SDS011;38537;47.226;39.702;2023-02-11T03:37:18;28.75;;;17.88;;
52650;SDS011;38537;47.226;39.702;2023-02-11T03:40:03;31.00;;;17.77;;
52650;SDS011;38537;47.226;39.702;2023-02-11T03:42:34;29.23;;;17.42;;
52650;SDS011;38537;47.226;39.702;2023-02-11T03:45:10;27.98;;;17.60;;
52650;SDS011;38537;47.226;39.702;2023-02-11T03:47:42;27.27;;;15.93;;
52650;SDS011;38537;47.226;39.702;2023-02-11T03:50:14;27.02;;;16.38;;
52650;SDS011;38537;47.226;39.702;2023-02-11T03:52:43;30.98;;;18.25;;
52650;SDS011;38537;47.226;39.702;2023-02-11T03:55:14;31.38;;;18.05;;
52650;SDS011;38537;47.226;39.702;2023-02-11T03:57:43;27.98;;;16.98;;
52650;SDS011;38537;47.226;39.702;2023-02-11T04:00:11;28.10;;;17.02;;
52650;SDS011;38537;47.226;39.702;2023-02-11T04:02:39;26.52;;;17.02;;
52650;SDS011;38537;47.226;39.702;2023-02-11T04:05:07;35.38;;;17.65;;
52650;SDS011;38537;47.226;39.702;2023-02-11T04:07:36;27.85;;;17.70;;
52650;SDS011;38537;47.226;39.702;2023-02-11T04:10:05;26.98;;;16.70;;
52650;SDS011;38537;47.226;39.702;2023-02-11T04:12:32;34.55;;;17.25;;
52650;SDS011;38537;47.226;39.702;2023-02-11T04:15:02;34.20;;;18.95;;
52650;SDS011;38537;47.226;39.702;2023-02-11T04:17:30;29.92;;;19.45;;
52650;SDS011;38537;47.226;39.702;2023-02-11T04:19:57;34.13;;;19.23;;
52650;SDS011;38537;47.226;39.702;2023-02-11T04:22:24;30.30;;;19.23;;
52650;SDS011;38537;47.226;39.702;2023-02-11T04:24:52;30.10;;;19.63;;
52650;SDS011;38537;47.226;39.702;2023-02-11T04:27:19;33.20;;;21.17;;
52650;SDS011;38537;47.226;39.702;2023-02-11T04:29:46;26.58;;;17.13;;
52650;SDS011;38537;47.226;39.702;2023-02-11T04:32:13;26.38;;;15.10;;
52650;SDS011;38537;47.226;39.702;2023-02-11T04:34:41;26.73;;;15.55;;
52650;SDS011;38537;47.226;39.702;2023-02-11T04:37:09;27.00;;;15.48;;
52650;SDS011;38537;47.226;39.702;2023-02-11T04:39:36;25.58;;;15.18;;
52650;SDS011;38537;47.226;39.702;2023-02-11T04:42:04;23.83;;;13.73;;
52650;SDS011;38537;47.226;39.702;2023-02-11T04:44:31;24.40;;;13.20;;
52650;SDS011;38537;47.226;39.702;2023-02-11T04:46:59;20.77;;;13.43;;
52650;SDS011;38537;47.226;39.702;2023-02-11T04:49:26;17.25;;;11.00;;
52650;SDS011;38537;47.226;39.702;2023-02-11T04:51:54;20.50;;;12.13;;
52650;SDS011;38537;47.226;39.702;2023-02-11T04:54:21;18.58;;;11.50;;
52650;SDS011;38537;47.226;39.702;2023-02-11T04:56:48;17.33;;;11.10;;
52650;SDS011;38537;47.226;39.702;2023-02-11T04:59:16;18.90;;;11.15;;
52650;SDS011;38537;47.226;39.702;2023-02-11T05:01:43;15.60;;;10.77;;
52650;SDS011;38537;47.226;39.702;2023-02-11T05:04:11;20.85;;;11.77;;
52650;SDS011;38537;47.226;39.702;2023-02-11T05:06:38;18.83;;;10.00;;
52650;SDS011;38537;47.226;39.702;2023-02-11T05:09:06;17.45;;;9.35;;
52650;SDS011;38537;47.226;39.702;2023-02-11T05:11:33;19.08;;;10.65;;
52650;SDS011;38537;47.226;39.702;2023-02-11T05:14:02;21.73;;;10.90;;
52650;SDS011;38537;47.226;39.702;2023-02-11T05:16:31;17.40;;;11.07;;
52650;SDS011;38537;47.226;39.702;2023-02-11T05:18:59;20.17;;;10.38;;
52650;SDS011;38537;47.226;39.702;2023-02-11T05:21:26;21.55;;;12.15;;
52650;SDS011;38537;47.226;39.702;2023-02-11T05:23:53;18.80;;;11.00;;
52650;SDS011;38537;47.226;39.702;2023-02-11T05:26:20;16.92;;;11.32;;
52650;SDS011;38537;47.226;39.702;2023-02-11T05:28:47;16.20;;;10.07;;
52650;SDS011;38537;47.226;39.702;2023-02-11T05:31:15;18.90;;;11.70;;
52650;SDS011;38537;47.226;39.702;2023-02-11T05:33:43;21.13;;;12.02;;
52650;SDS011;38537;47.226;39.702;2023-02-11T05:36:11;16.33;;;9.40;;
52650;SDS011;38537;47.226;39.702;2023-02-11T05:38:39;19.75;;;10.82;;
52650;SDS011;38537;47.226;39.702;2023-02-11T05:41:08;16.48;;;10.20;;
52650;SDS011;38537;47.226;39.702;2023-02-11T05:43:36;15.43;;;9.55;;
52650;SDS011;38537;47.226;39.702;2023-02-11T05:46:04;16.67;;;10.27;;
52650;SDS011;38537;47.226;39.702;2023-02-11T05:48:31;16.10;;;10.60;;
52650;SDS011;38537;47.226;39.702;2023-02-11T05:50:59;21.80;;;11.57;;
52650;SDS011;38537;47.226;39.702;2023-02-11T05:53:26;19.15;;;11.77;;
52650;SDS011;38537;47.226;39.702;2023-02-11T05:55:53;18.85;;;11.88;;
52650;SDS011;38537;47.226;39.702;2023-02-11T05:58:21;20.15;;;12.50;;
52650;SDS011;38537;47.226;39.702;2023-02-11T06:00:48;18.60;;;11.60;;
52650;SDS011;38537;47.226;39.702;2023-02-11T06:03:15;18.65;;;10.93;;
52650;SDS011;38537;47.226;39.702;2023-02-11T06:05:43;14.93;;;9.43;;
52650;SDS011;38537;47.226;39.702;2023-02-11T06:08:11;13.00;;;7.97;;
52650;SDS011;38537;47.226;39.702;2023-02-11T06:10:38;15.85;;;8.75;;
52650;SDS011;38537;47.226;39.702;2023-02-11T06:13:08;15.50;;;8.18;;
52650;SDS011;38537;47.226;39.702;2023-02-11T06:15:35;18.75;;;9.13;;
52650;SDS011;38537;47.226;39.702;2023-02-11T06:18:03;13.13;;;7.95;;
52650;SDS011;38537;47.226;39.702;2023-02-11T06:20:30;15.13;;;9.27;;
52650;SDS011;38537;47.226;39.702;2023-02-11T06:22:58;19.23;;;9.27;;
52650;SDS011;38537;47.226;39.702;2023-02-11T06:25:26;17.73;;;9.45;;
52650;SDS011;38537;47.226;39.702;2023-02-11T06:27:53;15.75;;;9.70;;
52650;SDS011;38537;47.226;39.702;2023-02-11T06:30:20;16.35;;;9.63;;
52650;SDS011;38537;47.226;39.702;2023-02-11T06:32:47;19.63;;;9.88;;
52650;SDS011;38537;47.226;39.702;2023-02-11T06:35:15;18.42;;;10.05;;
52650;SDS011;38537;47.226;39.702;2023-02-11T06:37:42;18.90;;;10.48;;
52650;SDS011;38537;47.226;39.702;2023-02-11T06:40:10;19.75;;;11.07;;
52650;SDS011;38537;47.226;39.702;2023-02-11T06:42:38;27.25;;;11.63;;
52650;SDS011;38537;47.226;39.702;2023-02-11T06:45:06;20.48;;;12.05;;
52650;SDS011;38537;47.226;39.702;2023-02-11T06:47:38;23.20;;;12.60;;
52650;SDS011;38537;47.226;39.702;2023-02-11T06:50:06;23.77;;;13.65;;
52650;SDS011;38537;47.226;39.702;2023-02-11T06:52:36;23.73;;;12.82;;
52650;SDS011;38537;47.226;39.702;2023-02-11T06:55:04;26.80;;;13.23;;
52650;SDS011;38537;47.226;39.702;2023-02-11T06:57:31;22.92;;;13.02;;
52650;SDS011;38537;47.226;39.702;2023-02-11T06:59:58;22.50;;;12.60;;
52650;SDS011;38537;47.226;39.702;2023-02-11T07:02:25;25.13;;;13.65;;
52650;SDS011;38537;47.226;39.702;2023-02-11T07:04:52;23.38;;;12.70;;
52650;SDS011;38537;47.226;39.702;2023-02-11T07:07:19;35.53;;;14.27;;
52650;SDS011;38537;47.226;39.702;2023-02-11T07:09:47;30.88;;;14.88;;
52650;SDS011;38537;47.226;39.702;2023-02-11T07:12:14;28.55;;;14.15;;
52650;SDS011;38537;47.226;39.702;2023-02-11T07:14:41;27.73;;;13.07;;
52650;SDS011;38537;47.226;39.702;2023-02-11T07:17:08;29.98;;;13.52;;
52650;SDS011;38537;47.226;39.702;2023-02-11T07:19:35;38.78;;;17.33;;
52650;SDS011;38537;47.226;39.702;2023-02-11T07:22:03;34.60;;;18.05;;
52650;SDS011;38537;47.226;39.702;2023-02-11T07:24:30;37.08;;;16.33;;
52650;SDS011;38537;47.226;39.702;2023-02-11T07:26:57;34.08;;;16.70;;
52650;SDS011;38537;47.226;39.702;2023-02-11T07:29:25;28.23;;;15.15;;
52650;SDS011;38537;47.226;39.702;2023-02-11T07:31:53;26.88;;;14.20;;
52650;SDS011;38537;47.226;39.702;2023-02-11T07:34:20;24.83;;;13.73;;
52650;SDS011;38537;47.226;39.702;2023-02-11T07:36:48;21.98;;;13.65;;
52650;SDS011;38537;47.226;39.702;2023-02-11T07:39:16;27.20;;;12.95;;
52650;SDS011;38537;47.226;39.702;2023-02-11T07:41:43;24.30;;;12.85;;
52650;SDS011;38537;47.226;39.702;2023-02-11T07:44:13;21.65;;;11.43;;
52650;SDS011;38537;47.226;39.702;2023-02-11T07:46:40;21.85;;;12.40;;
52650;SDS011;38537;47.226;39.702;2023-02-11T07:49:11;20.05;;;11.63;;
52650;SDS011;38537;47.226;39.702;2023-02-11T07:51:38;21.63;;;11.98;;
52650;SDS011;38537;47.226;39.702;2023-02-11T07:54:05;21.92;;;11.55;;
52650;SDS011;38537;47.226;39.702;2023-02-11T07:56:33;19.17;;;11.00;;
52650;SDS011;38537;47.226;39.702;2023-02-11T07:59:00;21.55;;;11.10;;
52650;SDS011;38537;47.226;39.702;2023-02-11T08:01:29;22.65;;;10.98;;
52650;SDS011;38537;47.226;39.702;2023-02-11T08:03:57;25.15;;;11.48;;
52650;SDS011;38537;47.226;39.702;2023-02-11T08:06:26;22.15;;;11.55;;
52650;SDS011;38537;47.226;39.702;2023-02-11T08:08:55;35.83;;;11.80;;
52650;SDS011;38537;47.226;39.702;2023-02-11T08:11:26;21.67;;;10.82;;
52650;SDS011;38537;47.226;39.702;2023-02-11T08:13:54;20.98;;;10.50;;
52650;SDS011;38537;47.226;39.702;2023-02-11T08:16:23;20.73;;;9.68;;
52650;SDS011;38537;47.226;39.702;2023-02-11T08:18:54;16.45;;;8.35;;
52650;SDS011;38537;47.226;39.702;2023-02-11T08:21:23;18.58;;;8.65;;
52650;SDS011;38537;47.226;39.702;2023-02-11T08:23:51;16.85;;;7.57;;
52650;SDS011;38537;47.226;39.702;2023-02-11T08:26:21;19.65;;;7.78;;
52650;SDS011;38537;47.226;39.702;2023-02-11T08:28:50;22.15;;;8.80;;
52650;SDS011;38537;47.226;39.702;2023-02-11T08:31:20;16.73;;;8.20;;
52650;SDS011;38537;47.226;39.702;2023-02-11T08:33:50;18.42;;;8.55;;
52650;SDS011;38537;47.226;39.702;2023-02-11T08:36:23;21.45;;;8.05;;
52650;SDS011;38537;47.226;39.702;2023-02-11T08:38:55;18.10;;;8.32;;
52650;SDS011;38537;47.226;39.702;2023-02-11T08:41:43;18.15;;;7.35;;
52650;SDS011;38537;47.226;39.702;2023-02-11T08:44:11;11.43;;;6.57;;
52650;SDS011;38537;47.226;39.702;2023-02-11T08:46:39;20.60;;;7.35;;
52650;SDS011;38537;47.226;39.702;2023-02-11T08:49:06;14.57;;;7.40;;
52650;SDS011;38537;47.226;39.702;2023-02-11T08:51:33;14.05;;;6.43;;
52650;SDS011;38537;47.226;39.702;2023-02-11T08:54:00;10.35;;;6.70;;
52650;SDS011;38537;47.226;39.702;2023-02-11T08:56:28;17.10;;;7.05;;
52650;SDS011;38537;47.226;39.702;2023-02-11T08:58:57;11.15;;;6.00;;
52650;SDS011;38537;47.226;39.702;2023-02-11T09:01:26;12.98;;;6.28;;
52650;SDS011;38537;47.226;39.702;2023-02-11T09:03:56;15.38;;;7.22;;
52650;SDS011;38537;47.226;39.702;2023-02-11T09:06:24;18.13;;;8.52;;
52650;SDS011;38537;47.226;39.702;2023-02-11T09:08:54;13.68;;;7.20;;
52650;SDS011;38537;47.226;39.702;2023-02-11T09:11:27;17.20;;;8.57;;
52650;SDS011;38537;47.226;39.702;2023-02-11T09:13:58;23.65;;;8.95;;
52650;SDS011;38537;47.226;39.702;2023-02-11T09:16:27;13.27;;;7.20;;
52650;SDS011;38537;47.226;39.702;2023-02-11T09:18:57;24.05;;;8.77;;
52650;SDS011;38537;47.226;39.702;2023-02-11T09:21:25;17.90;;;8.38;;
52650;SDS011;38537;47.226;39.702;2023-02-11T09:23:53;20.65;;;9.57;;
52650;SDS011;38537;47.226;39.702;2023-02-11T09:26:24;16.95;;;9.27;;
52650;SDS011;38537;47.226;39.702;2023-02-11T09:28:53;16.10;;;8.13;;
52650;SDS011;38537;47.226;39.702;2023-02-11T09:31:22;19.05;;;8.70;;
52650;SDS011;38537;47.226;39.702;2023-02-11T09:33:52;15.50;;;7.68;;
52650;SDS011;38537;47.226;39.702;2023-02-11T09:36:23;13.63;;;7.50;;
52650;SDS011;38537;47.226;39.702;2023-02-11T09:38:52;15.73;;;6.80;;
52650;SDS011;38537;47.226;39.702;2023-02-11T09:43:59;13.00;;;6.32;;
52650;SDS011;38537;47.226;39.702;2023-02-11T09:46:31;14.25;;;6.88;;
52650;SDS011;38537;47.226;39.702;2023-02-11T09:49:02;11.98;;;7.00;;
52650;SDS011;38537;47.226;39.702;2023-02-11T09:51:47;11.93;;;6.70;;
52650;SDS011;38537;47.226;39.702;2023-02-11T09:54:20;13.40;;;6.30;;
52650;SDS011;38537;47.226;39.702;2023-02-11T09:56:55;13.07;;;6.55;;
52650;SDS011;38537;47.226;39.702;2023-02-11T09:59:22;10.85;;;5.85;;
52650;SDS011;38537;47.226;39.702;2023-02-11T10:01:52;12.68;;;6.93;;
52650;SDS011;38537;47.226;39.702;2023-02-11T10:15:43;8.82;;;5.38;;
52650;SDS011;38537;47.226;39.702;2023-02-11T10:23:53;10.25;;;5.43;;
52650;SDS011;38537;47.226;39.702;2023-02-11T10:26:26;9.43;;;5.53;;
52650;SDS011;38537;47.226;39.702;2023-02-11T10:28:58;8.63;;;5.85;;
52650;SDS011;38537;47.226;39.702;2023-02-11T10:31:36;8.75;;;5.82;;
52650;SDS011;38537;47.226;39.702;2023-02-11T10:34:08;9.77;;;5.78;;
52650;SDS011;38537;47.226;39.702;2023-02-11T10:36:41;10.65;;;5.65;;
52650;SDS011;38537;47.226;39.702;2023-02-11T10:41:52;9.43;;;6.47;;
52650;SDS011;38537;47.226;39.702;2023-02-11T10:47:01;10.88;;;6.20;;
52650;SDS011;38537;47.226;39.702;2023-02-11T10:49:36;11.80;;;5.73;;
52650;SDS011;38537;47.226;39.702;2023-02-11T10:52:26;11.77;;;6.47;;
52650;SDS011;38537;47.226;39.702;2023-02-11T10:57:40;10.85;;;5.90;;
52650;SDS011;38537;47.226;39.702;2023-02-11T11:02:55;10.43;;;6.05;;
52650;SDS011;38537;47.226;39.702;2023-02-11T11:05:27;16.27;;;6.88;;
52650;SDS011;38537;47.226;39.702;2023-02-11T11:07:58;12.98;;;6.53;;
52650;SDS011;38537;47.226;39.702;2023-02-11T11:10:33;13.23;;;7.10;;
52650;SDS011;38537;47.226;39.702;2023-02-11T11:13:01;13.88;;;7.03;;
52650;SDS011;38537;47.226;39.702;2023-02-11T11:15:29;12.48;;;6.25;;
52650;SDS011;38537;47.226;39.702;2023-02-11T11:18:14;14.80;;;7.25;;
52650;SDS011;38537;47.226;39.702;2023-02-11T11:23:31;14.27;;;6.90;;
52650;SDS011;38537;47.226;39.702;2023-02-11T11:26:14;11.15;;;6.75;;
52650;SDS011;38537;47.226;39.702;2023-02-11T11:31:58;14.38;;;7.50;;
52650;SDS011;38537;47.226;39.702;2023-02-11T11:34:31;12.00;;;7.00;;
52650;SDS011;38537;47.226;39.702;2023-02-11T11:36:59;10.73;;;6.95;;
52650;SDS011;38537;47.226;39.702;2023-02-11T11:39:35;10.60;;;6.90;;
52650;SDS011;38537;47.226;39.702;2023-02-11T11:42:04;9.52;;;6.55;;
52650;SDS011;38537;47.226;39.702;2023-02-11T11:44:55;10.88;;;6.53;;
52650;SDS011;38537;47.226;39.702;2023-02-11T11:53:22;9.52;;;5.97;;
52650;SDS011;38537;47.226;39.702;2023-02-11T11:58:39;9.23;;;6.40;;
52650;SDS011;38537;47.226;39.702;2023-02-11T12:26:22;11.73;;;7.25;;
52650;SDS011;38537;47.226;39.702;2023-02-11T12:29:45;12.02;;;6.95;;
52650;SDS011;38537;47.226;39.702;2023-02-11T12:37:24;11.85;;;7.20;;
52650;SDS011;38537;47.226;39.702;2023-02-11T12:42:43;11.82;;;6.47;;
52650;SDS011;38537;47.226;39.702;2023-02-11T12:54:37;12.18;;;7.10;;
52650;SDS011;38537;47.226;39.702;2023-02-11T13:05:22;11.23;;;7.53;;
52650;SDS011;38537;47.226;39.702;2023-02-11T13:07:54;12.38;;;6.88;;
52650;SDS011;38537;47.226;39.702;2023-02-11T13:10:34;11.63;;;7.50;;
52650;SDS011;38537;47.226;39.702;2023-02-11T13:13:09;13.82;;;7.72;;
52650;SDS011;38537;47.226;39.702;2023-02-11T13:15:42;13.05;;;7.68;;
52650;SDS011;38537;47.226;39.702;2023-02-11T13:23:41;10.52;;;7.20;;
52650;SDS011;38537;47.226;39.702;2023-02-11T13:28:55;10.07;;;6.97;;
52650;SDS011;38537;47.226;39.702;2023-02-11T13:32:04;10.68;;;6.45;;
52650;SDS011;38537;47.226;39.702;2023-02-11T13:42:30;11.40;;;8.05;;
52650;SDS011;38537;47.226;39.702;2023-02-11T13:45:00;11.68;;;7.20;;
52650;SDS011;38537;47.226;39.702;2023-02-11T13:47:32;11.55;;;7.20;;
52650;SDS011;38537;47.226;39.702;2023-02-11T13:50:03;13.80;;;7.57;;
52650;SDS011;38537;47.226;39.702;2023-02-11T13:52:33;12.00;;;7.35;;
52650;SDS011;38537;47.226;39.702;2023-02-11T13:57:40;11.23;;;7.60;;
52650;SDS011;38537;47.226;39.702;2023-02-11T14:14:21;13.75;;;8.48;;
52650;SDS011;38537;47.226;39.702;2023-02-11T14:19:35;17.63;;;9.73;;
52650;SDS011;38537;47.226;39.702;2023-02-11T14:22:03;14.45;;;9.15;;
52650;SDS011;38537;47.226;39.702;2023-02-11T14:27:19;13.38;;;8.70;;
52650;SDS011;38537;47.226;39.702;2023-02-11T14:30:10;18.13;;;10.50;;
52650;SDS011;38537;47.226;39.702;2023-02-11T14:38:42;17.48;;;9.77;;
52650;SDS011;38537;47.226;39.702;2023-02-11T14:43:49;18.15;;;10.48;;
52650;SDS011;38537;47.226;39.702;2023-02-11T14:46:21;18.42;;;10.63;;
52650;SDS011;38537;47.226;39.702;2023-02-11T14:48:51;18.10;;;10.85;;
52650;SDS011;38537;47.226;39.702;2023-02-11T14:51:27;14.80;;;10.60;;
52650;SDS011;38537;47.226;39.702;2023-02-11T14:57:07;18.92;;;12.57;;
52650;SDS011;38537;47.226;39.702;2023-02-11T14:59:35;23.73;;;12.38;;
52650;SDS011;38537;47.226;39.702;2023-02-11T15:02:02;20.23;;;12.60;;
52650;SDS011;38537;47.226;39.702;2023-02-11T15:04:31;19.52;;;10.90;;
52650;SDS011;38537;47.226;39.702;2023-02-11T15:07:04;17.20;;;10.38;;
52650;SDS011;38537;47.226;39.702;2023-02-11T15:09:45;15.80;;;10.50;;
52650;SDS011;38537;47.226;39.702;2023-02-11T15:12:17;17.02;;;10.88;;
52650;SDS011;38537;47.226;39.702;2023-02-11T15:14:52;16.52;;;10.85;;
52650;SDS011;38537;47.226;39.702;2023-02-11T15:17:23;19.17;;;11.65;;
52650;SDS011;38537;47.226;39.702;2023-02-11T15:19:56;17.90;;;11.13;;
52650;SDS011;38537;47.226;39.702;2023-02-11T15:22:27;19.27;;;11.48;;
52650;SDS011;38537;47.226;39.702;2023-02-11T15:27:43;18.88;;;12.43;;
52650;SDS011;38537;47.226;39.702;2023-02-11T15:35:17;20.92;;;13.07;;
52650;SDS011;38537;47.226;39.702;2023-02-11T15:37:44;25.25;;;14.15;;
52650;SDS011;38537;47.226;39.702;2023-02-11T15:40:20;25.85;;;13.48;;
52650;SDS011;38537;47.226;39.702;2023-02-11T15:43:00;21.30;;;12.48;;
52650;SDS011;38537;47.226;39.702;2023-02-11T15:48:27;18.88;;;11.40;;
52650;SDS011;38537;47.226;39.702;2023-02-11T15:51:02;19.80;;;12.45;;
52650;SDS011;38537;47.226;39.702;2023-02-11T15:53:47;19.73;;;12.10;;
52650;SDS011;38537;47.226;39.702;2023-02-11T15:56:23;19.05;;;12.45;;
52650;SDS011;38537;47.226;39.702;2023-02-11T15:58:52;19.08;;;11.82;;
52650;SDS011;38537;47.226;39.702;2023-02-11T16:01:29;19.40;;;11.98;;
52650;SDS011;38537;47.226;39.702;2023-02-11T16:04:00;20.30;;;12.13;;
52650;SDS011;38537;47.226;39.702;2023-02-11T16:06:38;22.83;;;13.30;;
52650;SDS011;38537;47.226;39.702;2023-02-11T16:11:36;19.98;;;13.43;;
52650;SDS011;38537;47.226;39.702;2023-02-11T16:19:44;20.73;;;12.60;;
52650;SDS011;38537;47.226;39.702;2023-02-11T16:22:15;17.98;;;11.95;;
52650;SDS011;38537;47.226;39.702;2023-02-11T16:24:48;20.30;;;12.48;;
52650;SDS011;38537;47.226;39.702;2023-02-11T16:27:25;17.27;;;11.43;;
52650;SDS011;38537;47.226;39.702;2023-02-11T16:29:56;19.70;;;12.18;;
52650;SDS011;38537;47.226;39.702;2023-02-11T16:32:28;16.20;;;10.57;;
52650;SDS011;38537;47.226;39.702;2023-02-11T16:34:57;15.20;;;9.77;;
52650;SDS011;38537;47.226;39.702;2023-02-11T16:37:27;16.98;;;9.65;;
52650;SDS011;38537;47.226;39.702;2023-02-11T16:39:54;18.77;;;11.15;;
52650;SDS011;38537;47.226;39.702;2023-02-11T16:42:22;15.30;;;10.30;;
52650;SDS011;38537;47.226;39.702;2023-02-11T16:44:50;16.25;;;10.10;;
52650;SDS011;38537;47.226;39.702;2023-02-11T16:47:25;15.35;;;9.45;;
52650;SDS011;38537;47.226;39.702;2023-02-11T16:49:54;15.10;;;10.13;;
52650;SDS011;38537;47.226;39.702;2023-02-11T16:52:22;15.48;;;9.75;;
52650;SDS011;38537;47.226;39.702;2023-02-11T16:54:50;13.73;;;9.43;;
52650;SDS011;38537;47.226;39.702;2023-02-11T16:57:18;14.68;;;10.30;;
52650;SDS011;38537;47.226;39.702;2023-02-11T16:59:47;13.38;;;9.50;;
52650;SDS011;38537;47.226;39.702;2023-02-11T17:02:25;17.13;;;11.73;;
52650;SDS011;38537;47.226;39.702;2023-02-11T17:04:56;16.35;;;10.52;;
52650;SDS011;38537;47.226;39.702;2023-02-11T17:07:26;14.02;;;10.10;;
52650;SDS011;38537;47.226;39.702;2023-02-11T17:09:54;19.98;;;11.70;;
52650;SDS011;38537;47.226;39.702;2023-02-11T17:12:21;17.48;;;11.63;;
52650;SDS011;38537;47.226;39.702;2023-02-11T17:14:52;15.50;;;9.88;;
52650;SDS011;38537;47.226;39.702;2023-02-11T17:17:19;17.60;;;11.05;;
52650;SDS011;38537;47.226;39.702;2023-02-11T17:19:49;17.25;;;11.57;;
52650;SDS011;38537;47.226;39.702;2023-02-11T17:22:17;19.40;;;12.93;;
52650;SDS011;38537;47.226;39.702;2023-02-11T17:24:44;26.13;;;15.45;;
52650;SDS011;38537;47.226;39.702;2023-02-11T17:27:11;27.23;;;16.05;;
52650;SDS011;38537;47.226;39.702;2023-02-11T17:29:39;30.30;;;18.55;;
52650;SDS011;38537;47.226;39.702;2023-02-11T17:32:06;31.30;;;18.20;;
52650;SDS011;38537;47.226;39.702;2023-02-11T17:34:33;42.00;;;22.80;;
52650;SDS011;38537;47.226;39.702;2023-02-11T17:37:00;44.50;;;24.30;;
52650;SDS011;38537;47.226;39.702;2023-02-11T17:39:37;37.55;;;21.50;;
52650;SDS011;38537;47.226;39.702;2023-02-11T17:42:05;31.63;;;19.02;;
52650;SDS011;38537;47.226;39.702;2023-02-11T17:44:34;26.88;;;16.70;;
52650;SDS011;38537;47.226;39.702;2023-02-11T17:47:02;25.13;;;16.20;;
52650;SDS011;38537;47.226;39.702;2023-02-11T17:49:29;24.67;;;14.88;;
52650;SDS011;38537;47.226;39.702;2023-02-11T17:51:56;24.90;;;14.25;;